Time;durP1;ratioP1;P1;durP2;ratioP2;P2;SDS_P1;SDS_P2;PMS_P1;PMS_P2;Temp;Humidity;BMP_temperature;BMP_pressure;BME280_temperature;BME280_humidity;BME280_pressure;Samples;Min_cycle;Max_cycle;Signal;HPM_P1;HPM_P2
2023/12/22 00:00:11;;;;;;;7.80;1.75;;;;;;;;;;4947909;28;20153;-78
2023/12/22 00:02:37;;;;;;;9.10;2.28;;;;;;;;;;4961910;28;20037;-78
2023/12/22 00:05:04;;;;;;;8.55;1.83;;;;;;;;;;4964095;28;20048;-79
2023/12/22 00:07:31;;;;;;;5.97;2.45;;;;;;;;;;4964649;28;20039;-78
2023/12/22 00:09:57;;;;;;;5.10;1.60;;;;;;;;;;4962902;28;20047;-79
2023/12/22 00:12:25;;;;;;;4.05;1.70;;;;;;;;;;4967208;28;20051;-79
2023/12/22 00:14:51;;;;;;;4.82;0.90;;;;;;;;;;4963777;28;20039;-78
2023/12/22 00:17:17;;;;;;;4.10;0.90;;;;;;;;;;5030153;28;20039;-78
2023/12/22 00:19:43;;;;;;;2.70;0.80;;;;;;;;;;4964136;28;20035;-79
2023/12/22 00:22:10;;;;;;;3.35;0.90;;;;;;;;;;4972342;28;20042;-79
2023/12/22 00:24:36;;;;;;;1.25;0.85;;;;;;;;;;4951268;28;20042;-79
2023/12/22 00:27:03;;;;;;;1.50;0.80;;;;;;;;;;4963033;28;20030;-78
2023/12/22 00:29:29;;;;;;;5.88;0.90;;;;;;;;;;4941690;28;20039;-80
2023/12/22 00:31:56;;;;;;;3.40;1.02;;;;;;;;;;4990974;28;20052;-79
2023/12/22 00:34:23;;;;;;;3.00;0.90;;;;;;;;;;4961122;28;20210;-78
2023/12/22 00:36:49;;;;;;;6.45;1.10;;;;;;;;;;4988915;28;20039;-79
2023/12/22 00:39:16;;;;;;;6.20;1.33;;;;;;;;;;4966217;28;20037;-78
2023/12/22 00:41:42;;;;;;;3.05;1.10;;;;;;;;;;4960932;28;20051;-79
2023/12/22 00:44:11;;;;;;;5.67;1.23;;;;;;;;;;4967262;28;20044;-79
2023/12/22 00:46:37;;;;;;;2.60;1.13;;;;;;;;;;4960782;28;20278;-79
2023/12/22 00:49:04;;;;;;;2.88;1.20;;;;;;;;;;4944256;28;20037;-78
2023/12/22 00:51:40;;;;;;;4.35;1.10;;;;;;;;;;4932904;28;20050;-79
2023/12/22 00:54:06;;;;;;;2.35;1.25;;;;;;;;;;4962762;28;20039;-79
2023/12/22 00:56:32;;;;;;;3.13;1.00;;;;;;;;;;4962246;28;20034;-78
2023/12/22 00:58:58;;;;;;;7.53;1.40;;;;;;;;;;4953282;28;20047;-79
2023/12/22 01:01:24;;;;;;;4.38;1.27;;;;;;;;;;4958359;28;20042;-78
2023/12/22 01:03:51;;;;;;;4.03;1.20;;;;;;;;;;4982732;28;20049;-78
2023/12/22 01:06:18;;;;;;;3.45;1.20;;;;;;;;;;4961085;28;20031;-79
2023/12/22 01:08:44;;;;;;;5.82;1.30;;;;;;;;;;4945170;28;20039;-79
2023/12/22 01:11:10;;;;;;;4.15;1.30;;;;;;;;;;4974944;28;20035;-78
2023/12/22 01:13:36;;;;;;;3.85;1.10;;;;;;;;;;4975044;28;20036;-78
2023/12/22 01:16:03;;;;;;;3.33;1.35;;;;;;;;;;5008830;28;20039;-78
2023/12/22 01:18:29;;;;;;;4.32;1.50;;;;;;;;;;4949159;28;20055;-78
2023/12/22 01:20:58;;;;;;;6.20;1.42;;;;;;;;;;4959224;28;20047;-78
2023/12/22 01:23:25;;;;;;;3.60;1.20;;;;;;;;;;4968255;28;20057;-77
2023/12/22 01:25:51;;;;;;;5.85;1.42;;;;;;;;;;4993848;28;20047;-77
2023/12/22 01:28:18;;;;;;;6.15;1.48;;;;;;;;;;4991216;28;20032;-77
2023/12/22 01:30:45;;;;;;;6.03;1.33;;;;;;;;;;4984312;28;20054;-78
2023/12/22 01:33:11;;;;;;;3.40;1.15;;;;;;;;;;4993801;28;20033;-78
2023/12/22 01:35:37;;;;;;;2.17;1.15;;;;;;;;;;4937954;28;20043;-78
2023/12/22 01:38:03;;;;;;;3.30;1.33;;;;;;;;;;4976544;28;20043;-79
2023/12/22 01:40:29;;;;;;;3.70;1.20;;;;;;;;;;4955670;28;20031;-78
2023/12/22 01:42:56;;;;;;;4.70;1.08;;;;;;;;;;4959831;28;20060;-79
2023/12/22 01:45:22;;;;;;;7.18;1.67;;;;;;;;;;4946210;28;20043;-79
2023/12/22 01:47:48;;;;;;;4.28;1.15;;;;;;;;;;4964459;28;20035;-78
2023/12/22 01:50:16;;;;;;;7.32;1.73;;;;;;;;;;4927137;28;20039;-78
2023/12/22 01:52:43;;;;;;;4.15;1.13;;;;;;;;;;4944976;28;20039;-78
2023/12/22 01:55:13;;;;;;;3.53;0.63;;;;;;;;;;4943258;28;20053;-79
2023/12/22 01:57:40;;;;;;;1.27;0.50;;;;;;;;;;4945212;28;20429;-78
2023/12/22 02:00:08;;;;;;;2.17;0.73;;;;;;;;;;4970971;28;20054;-78
2023/12/22 02:02:40;;;;;;;1.15;0.50;;;;;;;;;;4991990;28;20032;-79
2023/12/22 02:05:09;;;;;;;1.05;0.55;;;;;;;;;;5010001;28;20046;-77
2023/12/22 02:07:35;;;;;;;2.40;0.73;;;;;;;;;;4959819;28;20039;-78
2023/12/22 02:10:01;;;;;;;1.17;0.40;;;;;;;;;;4943623;28;20043;-78
2023/12/22 02:12:27;;;;;;;0.32;0.32;;;;;;;;;;4964138;28;20035;-79
2023/12/22 02:14:53;;;;;;;0.40;0.40;;;;;;;;;;4962979;28;20043;-78
2023/12/22 02:17:50;;;;;;;1.58;0.40;;;;;;;;;;4985408;28;20034;-79
2023/12/22 02:20:17;;;;;;;0.40;0.40;;;;;;;;;;4955640;28;20041;-78
2023/12/22 02:22:44;;;;;;;1.13;0.50;;;;;;;;;;4973446;28;20054;-78
2023/12/22 02:25:11;;;;;;;2.88;0.50;;;;;;;;;;4990305;28;20039;-78
2023/12/22 02:27:42;;;;;;;0.52;0.40;;;;;;;;;;4910554;28;20110;-78
2023/12/22 02:30:23;;;;;;;2.92;0.50;;;;;;;;;;4983180;28;20035;-79
2023/12/22 02:32:53;;;;;;;3.92;0.50;;;;;;;;;;4944851;28;20038;-78
2023/12/22 02:35:23;;;;;;;0.55;0.43;;;;;;;;;;4954710;28;20039;-78
2023/12/22 02:37:50;;;;;;;;;;;;;;;;;;4962573;28;20042;-78
2023/12/22 02:40:17;;;;;;;0.80;0.70;;;;;;;;;;4946741;28;19915;-79
2023/12/22 02:42:44;;;;;;;0.90;0.43;;;;;;;;;;4962775;28;20038;-79
2023/12/22 02:45:16;;;;;;;2.22;0.50;;;;;;;;;;4945712;28;20042;-79
2023/12/22 02:47:43;;;;;;;3.53;0.88;;;;;;;;;;4952571;28;20051;-78
2023/12/22 02:50:13;;;;;;;6.82;0.82;;;;;;;;;;4968149;28;20039;-78
2023/12/22 02:52:39;;;;;;;3.85;0.63;;;;;;;;;;4947334;28;20049;-79
2023/12/22 02:55:05;;;;;;;2.35;0.70;;;;;;;;;;4970031;28;20054;-78
2023/12/22 02:57:32;;;;;;;3.15;0.90;;;;;;;;;;4964784;28;20046;-79
2023/12/22 02:59:58;;;;;;;1.83;0.60;;;;;;;;;;4958355;28;20040;-78
2023/12/22 03:02:25;;;;;;;3.65;0.80;;;;;;;;;;4968645;28;20031;-78
2023/12/22 03:04:51;;;;;;;3.67;0.80;;;;;;;;;;4962025;28;20054;-78
2023/12/22 03:07:18;;;;;;;4.18;0.98;;;;;;;;;;4964457;28;20035;-78
2023/12/22 03:09:44;;;;;;;3.20;0.90;;;;;;;;;;4965782;28;20033;-77
2023/12/22 03:12:10;;;;;;;4.45;1.08;;;;;;;;;;4966567;28;20050;-78
2023/12/22 03:14:37;;;;;;;1.60;0.75;;;;;;;;;;4945803;28;20042;-77
2023/12/22 03:17:06;;;;;;;4.78;0.75;;;;;;;;;;4987508;28;20042;-78
2023/12/22 03:19:33;;;;;;;2.35;0.80;;;;;;;;;;4942279;28;20039;-78
2023/12/22 03:21:59;;;;;;;3.97;0.98;;;;;;;;;;4971513;28;20054;-77
2023/12/22 03:24:28;;;;;;;3.25;0.88;;;;;;;;;;4992951;28;20038;-78
2023/12/22 03:26:55;;;;;;;5.18;1.17;;;;;;;;;;4956549;28;20054;-77
2023/12/22 03:29:22;;;;;;;3.33;0.82;;;;;;;;;;4955389;28;20076;-77
2023/12/22 03:31:48;;;;;;;6.00;0.77;;;;;;;;;;4963169;28;20054;-77
2023/12/22 03:34:14;;;;;;;5.15;0.75;;;;;;;;;;4953397;28;20417;-77
2023/12/22 03:36:40;;;;;;;3.72;0.85;;;;;;;;;;4939051;28;20039;-77
2023/12/22 03:39:12;;;;;;;2.10;0.70;;;;;;;;;;4956872;28;20110;-79
2023/12/22 03:41:38;;;;;;;2.95;0.77;;;;;;;;;;4962038;28;20039;-79
2023/12/22 03:44:04;;;;;;;1.17;0.60;;;;;;;;;;4942974;28;20035;-77
2023/12/22 03:46:30;;;;;;;1.48;0.60;;;;;;;;;;4960417;28;20058;-77
2023/12/22 03:48:56;;;;;;;3.47;0.50;;;;;;;;;;4951509;28;20399;-79
2023/12/22 03:51:23;;;;;;;0.57;0.52;;;;;;;;;;4944465;28;20051;-79
2023/12/22 03:53:50;;;;;;;2.60;0.60;;;;;;;;;;4965030;28;20405;-77
2023/12/22 03:56:16;;;;;;;1.48;0.60;;;;;;;;;;4958369;28;20038;-79
2023/12/22 03:58:43;;;;;;;2.53;0.93;;;;;;;;;;4959528;28;20058;-79
2023/12/22 04:01:13;;;;;;;1.90;0.70;;;;;;;;;;5000942;28;20043;-77
2023/12/22 04:03:39;;;;;;;1.67;0.40;;;;;;;;;;4942673;28;20072;-78
2023/12/22 04:06:05;;;;;;;2.95;0.80;;;;;;;;;;4964287;28;20406;-77
2023/12/22 04:08:34;;;;;;;2.20;0.60;;;;;;;;;;4962509;28;20506;-78
2023/12/22 04:11:03;;;;;;;1.88;0.70;;;;;;;;;;4939200;28;20514;-78
2023/12/22 04:14:15;;;;;;;2.05;0.68;;;;;;;;;;4967732;28;20043;-78
2023/12/22 04:16:41;;;;;;;1.60;0.63;;;;;;;;;;5004835;28;20033;-78
2023/12/22 04:19:07;;;;;;;3.53;0.60;;;;;;;;;;4942054;28;20039;-78
2023/12/22 04:21:45;;;;;;;0.82;0.55;;;;;;;;;;4926880;28;20035;-78
2023/12/22 04:24:11;;;;;;;3.67;0.70;;;;;;;;;;4988946;28;20039;-78
2023/12/22 04:26:37;;;;;;;1.52;0.57;;;;;;;;;;4995483;28;20029;-78
2023/12/22 04:29:33;;;;;;;5.68;0.70;;;;;;;;;;4945426;28;20515;-79
2023/12/22 04:31:59;;;;;;;3.63;0.80;;;;;;;;;;4982087;28;20047;-78
2023/12/22 04:34:26;;;;;;;1.65;0.60;;;;;;;;;;5002583;28;20029;-77
2023/12/22 04:37:22;;;;;;;2.63;0.68;;;;;;;;;;4988709;28;20065;-77
2023/12/22 04:39:48;;;;;;;1.92;0.90;;;;;;;;;;4958172;28;20533;-78
2023/12/22 04:42:15;;;;;;;4.50;0.82;;;;;;;;;;4962030;28;20047;-79
2023/12/22 04:44:41;;;;;;;2.85;0.93;;;;;;;;;;4962961;28;20054;-79
2023/12/22 04:47:07;;;;;;;5.63;1.00;;;;;;;;;;4934343;28;20031;-78
2023/12/22 04:49:42;;;;;;;4.80;0.90;;;;;;;;;;4968193;28;20062;-79
2023/12/22 04:52:08;;;;;;;5.97;1.15;;;;;;;;;;4954204;28;20043;-78
2023/12/22 04:54:36;;;;;;;5.60;1.00;;;;;;;;;;4948015;28;20521;-79
2023/12/22 04:57:02;;;;;;;3.42;0.85;;;;;;;;;;4940983;28;20062;-79
2023/12/22 04:59:29;;;;;;;7.57;1.17;;;;;;;;;;4937292;28;20035;-79
2023/12/22 05:01:55;;;;;;;2.65;0.80;;;;;;;;;;4939924;28;20040;-79
2023/12/22 05:04:21;;;;;;;2.65;0.90;;;;;;;;;;4966212;28;20045;-79
2023/12/22 05:06:49;;;;;;;4.28;1.83;;;;;;;;;;4947174;28;20047;-78
2023/12/22 05:09:17;;;;;;;3.45;1.13;;;;;;;;;;4970624;28;20036;-78
2023/12/22 05:11:43;;;;;;;4.38;1.17;;;;;;;;;;4944857;28;20058;-78
2023/12/22 05:14:10;;;;;;;2.88;0.70;;;;;;;;;;4989412;28;20031;-78
2023/12/22 05:16:37;;;;;;;4.28;1.05;;;;;;;;;;4951000;28;20031;-78
2023/12/22 05:19:03;;;;;;;2.95;0.80;;;;;;;;;;4943891;28;20533;-78
2023/12/22 05:21:30;;;;;;;5.30;0.90;;;;;;;;;;4950089;28;20031;-78
2023/12/22 05:23:56;;;;;;;4.78;0.98;;;;;;;;;;4961914;28;20043;-78
2023/12/22 05:26:24;;;;;;;6.68;1.50;;;;;;;;;;4957959;28;20405;-79
2023/12/22 05:28:51;;;;;;;5.43;1.70;;;;;;;;;;4943934;28;20046;-78
2023/12/22 05:31:19;;;;;;;5.07;1.52;;;;;;;;;;4954800;28;20042;-78
2023/12/22 05:33:47;;;;;;;3.72;1.50;;;;;;;;;;4983566;28;20058;-78
2023/12/22 05:36:13;;;;;;;5.50;1.50;;;;;;;;;;4959927;28;20043;-78
2023/12/22 05:38:40;;;;;;;5.45;0.90;;;;;;;;;;4959074;28;20532;-77
2023/12/22 05:41:06;;;;;;;3.33;0.90;;;;;;;;;;4940844;28;20035;-78
2023/12/22 05:43:35;;;;;;;7.82;1.10;;;;;;;;;;4966232;28;20042;-77
2023/12/22 05:46:02;;;;;;;9.00;1.60;;;;;;;;;;4926248;28;20035;-78
2023/12/22 05:48:28;;;;;;;7.93;1.52;;;;;;;;;;4963905;28;20054;-78
2023/12/22 05:50:57;;;;;;;8.07;1.60;;;;;;;;;;4947223;28;20039;-78
2023/12/22 05:53:23;;;;;;;4.57;1.25;;;;;;;;;;4963911;28;20497;-78
2023/12/22 05:55:50;;;;;;;5.60;1.92;;;;;;;;;;4960373;28;20050;-78
2023/12/22 05:58:16;;;;;;;4.70;1.60;;;;;;;;;;4964247;28;20039;-79
2023/12/22 06:00:42;;;;;;;5.57;1.38;;;;;;;;;;4947336;28;20054;-79
2023/12/22 06:03:08;;;;;;;5.75;1.52;;;;;;;;;;4969794;28;20046;-78
2023/12/22 06:05:35;;;;;;;11.07;1.80;;;;;;;;;;4966516;28;20043;-78
2023/12/22 06:08:01;;;;;;;8.68;1.65;;;;;;;;;;4980754;28;20051;-78
2023/12/22 06:10:27;;;;;;;5.75;1.75;;;;;;;;;;4958363;28;20029;-78
2023/12/22 06:12:53;;;;;;;6.63;1.90;;;;;;;;;;4960968;28;20053;-80
2023/12/22 06:15:19;;;;;;;7.18;1.45;;;;;;;;;;4996325;28;20043;-78
2023/12/22 06:17:45;;;;;;;8.48;2.38;;;;;;;;;;4986336;28;20398;-78
2023/12/22 06:20:12;;;;;;;9.80;1.55;;;;;;;;;;4967907;28;20042;-78
2023/12/22 06:22:38;;;;;;;8.32;1.77;;;;;;;;;;4961039;28;20043;-78
2023/12/22 06:25:07;;;;;;;5.38;1.23;;;;;;;;;;4950297;28;20027;-78
2023/12/22 06:27:34;;;;;;;5.93;1.65;;;;;;;;;;4970694;28;20039;-77
2023/12/22 06:30:01;;;;;;;3.83;1.30;;;;;;;;;;4978804;28;20164;-77
2023/12/22 06:32:28;;;;;;;6.43;1.60;;;;;;;;;;4952899;28;20035;-79
2023/12/22 06:34:54;;;;;;;4.88;1.58;;;;;;;;;;4993891;28;20052;-78
2023/12/22 06:37:21;;;;;;;6.13;1.50;;;;;;;;;;4952745;28;20043;-82
2023/12/22 06:39:47;;;;;;;6.68;1.80;;;;;;;;;;4954354;28;20047;-78
2023/12/22 06:42:14;;;;;;;6.35;2.00;;;;;;;;;;4957214;28;20513;-79
2023/12/22 06:44:46;;;;;;;4.57;1.25;;;;;;;;;;4942588;28;20050;-78
2023/12/22 06:47:13;;;;;;;8.30;1.40;;;;;;;;;;4939170;28;20115;-79
2023/12/22 06:49:39;;;;;;;10.30;1.65;;;;;;;;;;4962445;28;20497;-79
2023/12/22 06:52:05;;;;;;;7.53;1.63;;;;;;;;;;4960198;28;20046;-78
2023/12/22 06:54:32;;;;;;;6.03;1.40;;;;;;;;;;4950410;28;20043;-79
2023/12/22 06:56:59;;;;;;;6.63;1.25;;;;;;;;;;4985836;28;20035;-79
2023/12/22 06:59:26;;;;;;;3.92;1.35;;;;;;;;;;4969271;28;20050;-78
2023/12/22 07:01:52;;;;;;;5.82;1.85;;;;;;;;;;4964935;28;20233;-79
2023/12/22 07:04:18;;;;;;;5.93;1.45;;;;;;;;;;4953833;28;20042;-79
2023/12/22 07:06:44;;;;;;;5.78;1.20;;;;;;;;;;4938262;28;20042;-79
2023/12/22 07:09:11;;;;;;;6.70;1.67;;;;;;;;;;4954398;28;20042;-79
2023/12/22 07:11:43;;;;;;;5.50;1.30;;;;;;;;;;4953706;28;20051;-78
2023/12/22 07:14:09;;;;;;;6.32;1.85;;;;;;;;;;4938072;28;20031;-79
2023/12/22 07:16:37;;;;;;;11.70;1.98;;;;;;;;;;4955118;28;20069;-79
2023/12/22 07:19:13;;;;;;;5.13;1.70;;;;;;;;;;4947320;28;20062;-78
2023/12/22 07:21:40;;;;;;;5.72;1.60;;;;;;;;;;4925242;28;20126;-78
2023/12/22 07:24:07;;;;;;;8.00;1.80;;;;;;;;;;4958800;28;20410;-78
2023/12/22 07:26:34;;;;;;;5.82;1.77;;;;;;;;;;4954962;28;20507;-79
2023/12/22 07:29:00;;;;;;;9.10;1.63;;;;;;;;;;4944167;28;20049;-78
2023/12/22 07:31:28;;;;;;;5.97;1.67;;;;;;;;;;4989858;28;20042;-78
2023/12/22 07:33:54;;;;;;;7.90;1.83;;;;;;;;;;4979919;28;20055;-79
2023/12/22 07:36:21;;;;;;;10.80;2.10;;;;;;;;;;4933385;28;20050;-78
2023/12/22 07:38:47;;;;;;;6.38;2.20;;;;;;;;;;4954753;28;20239;-79
2023/12/22 07:41:13;;;;;;;6.85;2.17;;;;;;;;;;4937658;28;20031;-78
2023/12/22 07:43:41;;;;;;;6.88;1.80;;;;;;;;;;4951006;28;20058;-79
2023/12/22 07:46:09;;;;;;;7.55;1.63;;;;;;;;;;4937127;28;20038;-79
2023/12/22 07:48:35;;;;;;;7.35;1.95;;;;;;;;;;4944106;28;20043;-79
2023/12/22 07:51:02;;;;;;;8.70;1.73;;;;;;;;;;4939884;28;20036;-78
2023/12/22 07:53:28;;;;;;;4.70;1.63;;;;;;;;;;4969325;28;20039;-78
2023/12/22 07:55:55;;;;;;;8.68;2.28;;;;;;;;;;4954562;28;20039;-78
2023/12/22 07:58:23;;;;;;;6.63;1.60;;;;;;;;;;4974712;28;20038;-77
2023/12/22 08:00:49;;;;;;;6.93;2.05;;;;;;;;;;4958758;28;20043;-79
2023/12/22 08:03:16;;;;;;;9.93;2.38;;;;;;;;;;4942449;28;20050;-77
2023/12/22 08:05:42;;;;;;;6.70;2.20;;;;;;;;;;4959485;28;20039;-79
2023/12/22 08:08:09;;;;;;;9.65;2.00;;;;;;;;;;4949332;28;20050;-77
2023/12/22 08:10:35;;;;;;;7.60;2.22;;;;;;;;;;4947597;28;20039;-77
2023/12/22 08:13:01;;;;;;;8.65;2.80;;;;;;;;;;4960545;28;20050;-78
2023/12/22 08:15:27;;;;;;;12.57;3.38;;;;;;;;;;4939489;28;20505;-77
2023/12/22 08:17:53;;;;;;;10.23;3.00;;;;;;;;;;4953874;28;20044;-77
2023/12/22 08:20:21;;;;;;;7.25;3.10;;;;;;;;;;4987874;28;20059;-77
2023/12/22 08:22:48;;;;;;;9.23;2.83;;;;;;;;;;4994795;28;20048;-76
2023/12/22 08:25:15;;;;;;;7.82;1.92;;;;;;;;;;4984071;28;20417;-76
2023/12/22 08:27:42;;;;;;;7.65;2.80;;;;;;;;;;4958302;28;20040;-76
2023/12/22 08:30:09;;;;;;;4.30;1.70;;;;;;;;;;4956439;28;20039;-76
2023/12/22 08:32:35;;;;;;;7.53;2.20;;;;;;;;;;4953932;28;20497;-76
2023/12/22 08:35:03;;;;;;;10.13;2.28;;;;;;;;;;4955084;28;20050;-77
2023/12/22 08:37:29;;;;;;;10.10;2.53;;;;;;;;;;4952887;28;20039;-77
2023/12/22 08:39:56;;;;;;;6.82;1.60;;;;;;;;;;4941245;28;20070;-78
2023/12/22 08:42:22;;;;;;;13.90;2.60;;;;;;;;;;4964388;28;20046;-77
2023/12/22 08:44:49;;;;;;;7.07;2.55;;;;;;;;;;4948444;28;20042;-76
2023/12/22 08:47:15;;;;;;;8.00;1.98;;;;;;;;;;4959593;28;20047;-78
2023/12/22 08:49:42;;;;;;;8.27;2.10;;;;;;;;;;4977385;28;20055;-78
2023/12/22 08:52:08;;;;;;;6.38;2.22;;;;;;;;;;4938985;28;20509;-77
2023/12/22 08:54:35;;;;;;;5.60;1.55;;;;;;;;;;4952057;28;20045;-78
2023/12/22 08:57:04;;;;;;;10.82;2.10;;;;;;;;;;4959819;28;20648;-77
2023/12/22 08:59:30;;;;;;;8.15;2.10;;;;;;;;;;4938271;28;20043;-77
2023/12/22 09:01:56;;;;;;;7.60;2.20;;;;;;;;;;4973760;28;20053;-78
2023/12/22 09:04:22;;;;;;;6.97;2.17;;;;;;;;;;4967183;28;20035;-77
2023/12/22 09:06:52;;;;;;;7.65;2.20;;;;;;;;;;4933975;28;20039;-77
2023/12/22 09:09:18;;;;;;;8.13;1.92;;;;;;;;;;4939139;28;20043;-78
2023/12/22 09:11:44;;;;;;;10.55;2.25;;;;;;;;;;4955140;28;20065;-77
2023/12/22 09:14:10;;;;;;;4.75;1.55;;;;;;;;;;4946894;28;20061;-78
2023/12/22 09:16:37;;;;;;;7.60;1.92;;;;;;;;;;4954347;28;20035;-79
2023/12/22 09:19:04;;;;;;;5.55;1.75;;;;;;;;;;4932781;28;20405;-78
2023/12/22 09:21:30;;;;;;;5.38;2.00;;;;;;;;;;4961105;28;20033;-78
2023/12/22 09:23:56;;;;;;;8.32;1.70;;;;;;;;;;4985291;28;20058;-78
2023/12/22 09:26:22;;;;;;;5.32;1.83;;;;;;;;;;4985400;28;20525;-78
2023/12/22 09:28:49;;;;;;;4.85;2.05;;;;;;;;;;4984901;28;20039;-78
2023/12/22 09:31:15;;;;;;;9.48;2.72;;;;;;;;;;4954474;28;20030;-78
2023/12/22 09:33:42;;;;;;;11.60;1.70;;;;;;;;;;4955718;28;20635;-78
2023/12/22 09:36:09;;;;;;;9.88;2.17;;;;;;;;;;4934967;28;20047;-78
2023/12/22 09:38:36;;;;;;;5.40;1.70;;;;;;;;;;4957460;28;20537;-77
2023/12/22 09:41:02;;;;;;;11.25;2.13;;;;;;;;;;4958312;28;20074;-77
2023/12/22 09:43:29;;;;;;;12.50;2.35;;;;;;;;;;4951279;28;20058;-78
2023/12/22 09:45:57;;;;;;;10.10;2.42;;;;;;;;;;4956848;28;20410;-78
2023/12/22 09:48:28;;;;;;;7.75;1.67;;;;;;;;;;4954682;28;20054;-77
2023/12/22 09:50:55;;;;;;;8.32;2.63;;;;;;;;;;4954998;28;20038;-77
2023/12/22 09:53:24;;;;;;;8.45;2.53;;;;;;;;;;4957840;28;20035;-77
2023/12/22 09:55:50;;;;;;;6.65;2.13;;;;;;;;;;4970388;28;20058;-77
2023/12/22 09:58:16;;;;;;;8.02;2.42;;;;;;;;;;4975345;28;20046;-77
2023/12/22 10:00:43;;;;;;;9.77;1.70;;;;;;;;;;4941918;28;20039;-77
2023/12/22 10:03:12;;;;;;;8.82;2.00;;;;;;;;;;4986011;28;20043;-77
2023/12/22 10:05:43;;;;;;;9.27;2.17;;;;;;;;;;4937173;28;20417;-77
2023/12/22 10:08:11;;;;;;;10.43;2.30;;;;;;;;;;4982521;28;20029;-78
2023/12/22 10:10:39;;;;;;;7.68;2.40;;;;;;;;;;4946006;28;20224;-77
2023/12/22 10:13:09;;;;;;;12.73;2.35;;;;;;;;;;4958102;28;20047;-77
2023/12/22 10:15:44;;;;;;;9.50;2.78;;;;;;;;;;4919979;28;20409;-77
2023/12/22 10:18:12;;;;;;;8.70;1.92;;;;;;;;;;4996509;28;20041;-77
2023/12/22 10:20:40;;;;;;;11.82;2.10;;;;;;;;;;4946627;28;20047;-77
2023/12/22 10:23:07;;;;;;;7.60;2.05;;;;;;;;;;4937939;28;20046;-77
2023/12/22 10:25:33;;;;;;;7.20;1.88;;;;;;;;;;4979788;28;20042;-77
2023/12/22 10:27:59;;;;;;;9.18;2.85;;;;;;;;;;4924532;28;20040;-78
2023/12/22 10:30:26;;;;;;;7.45;2.25;;;;;;;;;;4976839;28;20051;-77
2023/12/22 10:32:52;;;;;;;14.23;2.63;;;;;;;;;;4958820;28;20392;-77
2023/12/22 10:35:22;;;;;;;7.78;2.15;;;;;;;;;;4949860;28;20066;-79
2023/12/22 10:37:52;;;;;;;;;;;;;;;;;;4986918;28;20033;-77
2023/12/22 10:40:21;;;;;;;11.32;2.25;;;;;;;;;;4955602;28;19929;-77
2023/12/22 10:42:49;;;;;;;14.52;2.65;;;;;;;;;;4944417;28;20051;-77
2023/12/22 10:45:19;;;;;;;11.35;2.55;;;;;;;;;;4954540;28;20042;-77
2023/12/22 10:47:50;;;;;;;8.52;2.38;;;;;;;;;;4953398;28;20409;-76
2023/12/22 10:50:20;;;;;;;13.00;3.55;;;;;;;;;;4969684;28;20027;-78
2023/12/22 10:52:53;;;;;;;11.98;2.05;;;;;;;;;;4977658;28;20054;-76
2023/12/22 10:55:19;;;;;;;8.50;1.95;;;;;;;;;;4970017;28;20047;-78
2023/12/22 10:57:47;;;;;;;7.22;2.10;;;;;;;;;;4975269;28;20526;-78
2023/12/22 11:00:22;;;;;;;12.18;2.05;;;;;;;;;;4989390;28;20047;-77
2023/12/22 11:02:55;;;;;;;7.60;1.65;;;;;;;;;;4965955;28;20043;-77
2023/12/22 11:05:27;;;;;;;10.18;2.10;;;;;;;;;;4988773;28;20044;-79
2023/12/22 11:08:01;;;;;;;10.43;2.40;;;;;;;;;;4976846;28;20397;-77
2023/12/22 11:10:30;;;;;;;8.55;2.50;;;;;;;;;;4968172;28;20052;-78
2023/12/22 11:12:57;;;;;;;6.90;2.40;;;;;;;;;;4974451;28;20054;-78
2023/12/22 11:15:28;;;;;;;7.97;2.40;;;;;;;;;;5005064;28;20029;-78
2023/12/22 11:17:57;;;;;;;7.45;2.25;;;;;;;;;;4943623;28;20044;-78
2023/12/22 11:20:24;;;;;;;10.50;3.10;;;;;;;;;;5008416;28;20057;-78
2023/12/22 11:22:52;;;;;;;11.45;2.25;;;;;;;;;;4990565;28;20031;-77
2023/12/22 11:25:20;;;;;;;6.03;1.92;;;;;;;;;;4980381;28;20503;-78
2023/12/22 11:27:48;;;;;;;6.70;1.88;;;;;;;;;;4945748;28;20047;-78
2023/12/22 11:30:14;;;;;;;12.88;2.40;;;;;;;;;;4956226;28;20036;-77
2023/12/22 11:32:44;;;;;;;6.22;2.30;;;;;;;;;;4955003;28;20043;-77
2023/12/22 11:35:14;;;;;;;;;;;;;;;;;;4951179;28;20043;-77
2023/12/22 11:37:41;;;;;;;;;;;;;;;;;;4978308;28;19918;-77
2023/12/22 11:40:08;;;;;;;12.82;3.38;;;;;;;;;;4960792;28;19919;-77
2023/12/22 11:42:43;;;;;;;5.90;1.67;;;;;;;;;;4966984;28;20031;-77
2023/12/22 11:45:12;;;;;;;8.98;2.88;;;;;;;;;;4962916;28;20054;-77
2023/12/22 11:47:38;;;;;;;8.82;2.22;;;;;;;;;;4970855;28;20039;-78
2023/12/22 11:50:10;;;;;;;5.88;1.90;;;;;;;;;;4935786;28;20038;-77
2023/12/22 11:52:36;;;;;;;9.35;1.83;;;;;;;;;;4976548;28;20035;-77
2023/12/22 11:55:03;;;;;;;7.32;2.67;;;;;;;;;;4958237;28;20109;-77
2023/12/22 11:57:32;;;;;;;8.55;1.92;;;;;;;;;;4978994;28;20046;-76
2023/12/22 12:00:10;;;;;;;9.00;2.28;;;;;;;;;;4959856;28;20049;-77
2023/12/22 12:02:54;;;;;;;11.38;3.70;;;;;;;;;;4952765;28;20046;-79
2023/12/22 12:05:27;;;;;;;8.98;1.92;;;;;;;;;;4961250;28;20034;-79
2023/12/22 12:07:54;;;;;;;9.13;2.25;;;;;;;;;;4972284;28;20035;-79
2023/12/22 12:10:38;;;;;;;13.10;2.33;;;;;;;;;;4977345;28;20044;-79
2023/12/22 12:13:15;;;;;;;8.60;1.58;;;;;;;;;;4981568;28;20043;-76
2023/12/22 12:15:41;;;;;;;7.78;2.42;;;;;;;;;;4966599;28;20536;-77
2023/12/22 12:18:09;;;;;;;5.82;1.52;;;;;;;;;;5020281;28;20043;-78
2023/12/22 12:20:36;;;;;;;5.95;1.73;;;;;;;;;;4910739;28;20054;-78
2023/12/22 12:23:02;;;;;;;5.55;1.98;;;;;;;;;;4966752;28;20036;-77
2023/12/22 12:25:31;;;;;;;6.05;1.35;;;;;;;;;;4945100;28;20039;-79
2023/12/22 12:28:11;;;;;;;7.07;1.90;;;;;;;;;;4949916;28;20040;-79
2023/12/22 12:30:39;;;;;;;5.78;1.38;;;;;;;;;;4962610;28;20039;-79
2023/12/22 12:33:10;;;;;;;7.43;2.33;;;;;;;;;;4976194;28;20062;-79
2023/12/22 12:35:39;;;;;;;6.00;1.88;;;;;;;;;;4962326;28;20047;-79
2023/12/22 12:38:06;;;;;;;4.82;1.52;;;;;;;;;;4952849;28;20035;-79
2023/12/22 12:40:35;;;;;;;3.58;1.13;;;;;;;;;;4973236;28;20039;-79
2023/12/22 12:43:04;;;;;;;4.03;1.47;;;;;;;;;;4959746;28;20054;-79
2023/12/22 12:45:30;;;;;;;7.43;1.95;;;;;;;;;;4958300;28;20039;-78
2023/12/22 12:48:04;;;;;;;5.40;1.73;;;;;;;;;;4980686;28;20032;-78
2023/12/22 12:50:33;;;;;;;3.10;1.50;;;;;;;;;;4959321;28;20038;-78
2023/12/22 12:53:07;;;;;;;3.65;1.48;;;;;;;;;;4962134;28;20050;-78
2023/12/22 12:55:33;;;;;;;5.22;1.30;;;;;;;;;;4960165;28;20044;-78
2023/12/22 12:58:00;;;;;;;3.38;1.10;;;;;;;;;;4985114;28;20037;-79
2023/12/22 13:00:31;;;;;;;4.93;1.30;;;;;;;;;;4947335;28;20045;-78
2023/12/22 13:03:05;;;;;;;2.78;1.48;;;;;;;;;;4976171;28;20045;-78
2023/12/22 13:05:32;;;;;;;6.82;2.58;;;;;;;;;;4950026;28;20035;-78
2023/12/22 13:08:13;;;;;;;5.78;1.92;;;;;;;;;;4956350;28;20043;-78
2023/12/22 13:10:40;;;;;;;2.90;1.50;;;;;;;;;;5004130;28;20043;-79
2023/12/22 13:13:07;;;;;;;4.63;1.30;;;;;;;;;;4951511;28;20379;-78
2023/12/22 13:15:34;;;;;;;4.88;2.08;;;;;;;;;;4956098;28;20035;-79
2023/12/22 13:18:04;;;;;;;2.85;1.10;;;;;;;;;;4945135;28;20421;-78
2023/12/22 13:20:31;;;;;;;2.85;1.50;;;;;;;;;;4966388;28;20802;-76
2023/12/22 13:22:57;;;;;;;3.92;1.92;;;;;;;;;;4962677;28;20048;-77
2023/12/22 13:25:23;;;;;;;2.25;1.40;;;;;;;;;;4960808;28;20039;-77
2023/12/22 13:27:52;;;;;;;3.42;1.30;;;;;;;;;;4952605;28;20045;-77
2023/12/22 13:30:40;;;;;;;1.88;0.90;;;;;;;;;;4940050;28;20031;-77
2023/12/22 13:33:08;;;;;;;3.65;1.40;;;;;;;;;;4961508;28;20039;-78
2023/12/22 13:35:40;;;;;;;3.13;1.10;;;;;;;;;;4955482;28;20051;-78
2023/12/22 13:38:07;;;;;;;;;;;;;;;;;;4905763;28;20066;-77
2023/12/22 13:40:35;;;;;;;4.80;2.40;;;;;;;;;;4964802;28;19925;-76
2023/12/22 13:43:02;;;;;;;4.00;1.70;;;;;;;;;;4929962;28;20047;-77
2023/12/22 13:45:30;;;;;;;1.40;1.30;;;;;;;;;;4944504;28;20043;-77
2023/12/22 13:48:00;;;;;;;5.50;2.33;;;;;;;;;;4970005;28;20074;-78
2023/12/22 13:50:27;;;;;;;10.27;1.30;;;;;;;;;;4976774;28;20031;-77
2023/12/22 13:52:55;;;;;;;13.80;1.90;;;;;;;;;;4944192;28;20048;-77
2023/12/22 13:55:24;;;;;;;6.35;2.13;;;;;;;;;;4995537;28;20043;-79
2023/12/22 13:58:00;;;;;;;2.25;1.38;;;;;;;;;;4982789;28;20058;-79
2023/12/22 14:00:31;;;;;;;2.85;1.42;;;;;;;;;;4957929;28;20416;-79
2023/12/22 14:02:58;;;;;;;4.25;1.55;;;;;;;;;;4944785;28;20413;-79
2023/12/22 14:05:28;;;;;;;3.20;1.92;;;;;;;;;;4961721;28;20043;-79
2023/12/22 14:07:54;;;;;;;2.85;1.10;;;;;;;;;;4981729;28;20054;-79
2023/12/22 14:10:21;;;;;;;2.22;0.90;;;;;;;;;;4960298;28;20509;-79
2023/12/22 14:12:51;;;;;;;1.88;1.45;;;;;;;;;;4946408;28;20039;-79
2023/12/22 14:15:17;;;;;;;1.55;1.10;;;;;;;;;;4954044;28;20039;-79
2023/12/22 14:17:43;;;;;;;2.00;1.20;;;;;;;;;;4957748;28;20070;-78
2023/12/22 14:20:11;;;;;;;2.35;1.13;;;;;;;;;;4979745;28;20039;-78
2023/12/22 14:22:38;;;;;;;1.23;0.80;;;;;;;;;;4957223;28;20036;-78
2023/12/22 14:25:05;;;;;;;1.80;1.15;;;;;;;;;;4931714;28;20051;-77
2023/12/22 14:27:32;;;;;;;2.03;1.15;;;;;;;;;;4959011;28;20054;-78
2023/12/22 14:29:58;;;;;;;1.88;1.40;;;;;;;;;;4964060;28;20026;-80
2023/12/22 14:32:25;;;;;;;0.90;0.77;;;;;;;;;;4975114;28;20024;-80
2023/12/22 14:34:51;;;;;;;2.08;1.00;;;;;;;;;;5013886;28;20046;-79
2023/12/22 14:37:19;;;;;;;1.42;1.27;;;;;;;;;;4979098;28;20047;-80
2023/12/22 14:39:46;;;;;;;2.83;1.63;;;;;;;;;;4968190;28;20409;-80
2023/12/22 14:42:12;;;;;;;3.97;1.83;;;;;;;;;;4944103;28;20043;-80
2023/12/22 14:44:39;;;;;;;3.58;1.73;;;;;;;;;;4978353;28;20055;-80
2023/12/22 14:47:06;;;;;;;2.97;1.48;;;;;;;;;;5028620;28;20044;-78